createdAt,value
2022-11-13T00:00:29.692Z,1027.79
2022-11-13T00:01:29.669Z,1027.80
2022-11-13T00:02:29.679Z,1027.76
2022-11-13T00:03:29.643Z,1027.73
2022-11-13T00:04:29.633Z,1027.67
2022-11-13T00:05:29.621Z,1027.64
2022-11-13T00:06:29.617Z,1027.67
2022-11-13T00:07:29.725Z,1027.62
2022-11-13T00:08:30.008Z,1027.60
2022-11-13T00:09:29.688Z,1027.60
2022-11-13T00:10:29.567Z,1027.62
2022-11-13T00:11:29.559Z,1027.61
2022-11-13T00:12:29.589Z,1027.59
2022-11-13T00:13:30.720Z,1027.63
2022-11-13T00:14:29.523Z,1027.61
2022-11-13T00:15:29.510Z,1027.65
2022-11-13T00:16:29.499Z,1027.63
2022-11-13T00:17:29.491Z,1027.62
2022-11-13T00:18:29.860Z,1027.66
2022-11-13T00:19:29.466Z,1027.66
2022-11-13T00:20:29.455Z,1027.63
2022-11-13T00:21:29.442Z,1027.62
2022-11-13T00:22:29.432Z,1027.66
2022-11-13T00:23:29.422Z,1027.70
2022-11-13T00:24:29.430Z,1027.73
2022-11-13T00:25:29.419Z,1027.75
2022-11-13T00:26:29.389Z,1027.75
2022-11-13T00:27:29.377Z,1027.74
2022-11-13T00:28:29.773Z,1027.74
2022-11-13T00:29:29.356Z,1027.70
2022-11-13T00:30:29.361Z,1027.67
2022-11-13T00:31:29.334Z,1027.64
2022-11-13T00:32:29.321Z,1027.64
2022-11-13T00:33:54.829Z,1027.65
2022-11-13T00:34:47.120Z,1027.60
2022-11-13T00:35:30.294Z,1027.60
2022-11-13T00:36:29.277Z,1027.64
2022-11-13T00:37:29.267Z,1027.66
2022-11-13T00:38:29.654Z,1027.68
2022-11-13T00:39:29.244Z,1027.63
2022-11-13T00:40:29.234Z,1027.65
2022-11-13T00:41:29.367Z,1027.66
2022-11-13T00:42:29.210Z,1027.59
2022-11-13T00:43:29.201Z,1027.60
2022-11-13T00:44:29.187Z,1027.60
2022-11-13T00:45:29.177Z,1027.58
2022-11-13T00:46:29.168Z,1027.59
2022-11-13T00:47:29.165Z,1027.56
2022-11-13T00:48:29.483Z,1027.59
2022-11-13T00:49:29.133Z,1027.54
2022-11-13T00:50:29.127Z,1027.57
2022-11-13T00:51:29.112Z,1027.51
2022-11-13T00:52:29.099Z,1027.50
2022-11-13T00:53:29.095Z,1027.51
2022-11-13T00:54:29.076Z,1027.50
2022-11-13T00:55:29.068Z,1027.52
2022-11-13T00:56:29.055Z,1027.49
2022-11-13T00:57:29.158Z,1027.48
2022-11-13T00:58:29.312Z,1027.51
2022-11-13T00:59:29.043Z,1027.48
2022-11-13T01:00:29.010Z,1027.46
2022-11-13T01:01:29.007Z,1027.43
2022-11-13T01:02:28.988Z,1027.41
2022-11-13T01:03:28.978Z,1027.42
2022-11-13T01:04:28.966Z,1027.44
2022-11-13T01:05:28.962Z,1027.43
2022-11-13T01:06:28.944Z,1027.41
2022-11-13T01:07:28.932Z,1027.38
2022-11-13T01:08:29.283Z,1027.34
2022-11-13T01:09:28.911Z,1027.34
2022-11-13T01:10:28.908Z,1027.27
2022-11-13T01:11:28.895Z,1027.29
2022-11-13T01:12:28.878Z,1027.31
2022-11-13T01:13:28.980Z,1027.29
2022-11-13T01:14:28.855Z,1027.29
2022-11-13T01:15:28.844Z,1027.31
2022-11-13T01:16:28.842Z,1027.30
2022-11-13T01:17:28.866Z,1027.28
2022-11-13T01:18:29.125Z,1027.22
2022-11-13T01:19:28.801Z,1027.25
2022-11-13T01:20:28.789Z,1027.24
2022-11-13T01:21:28.780Z,1027.26
2022-11-13T01:22:28.766Z,1027.28
2022-11-13T01:23:28.762Z,1027.28
2022-11-13T01:24:28.743Z,1027.27
2022-11-13T01:25:28.733Z,1027.25
2022-11-13T01:26:28.721Z,1027.22
2022-11-13T01:27:28.713Z,1027.19
2022-11-13T01:28:28.958Z,1027.18
2022-11-13T01:29:28.713Z,1027.20
2022-11-13T01:30:28.677Z,1027.19
2022-11-13T01:31:28.669Z,1027.21
2022-11-13T01:32:28.655Z,1027.22
2022-11-13T01:33:28.645Z,1027.22
2022-11-13T01:34:28.634Z,1027.23
2022-11-13T01:35:28.644Z,1027.23
2022-11-13T01:36:28.612Z,1027.24
2022-11-13T01:37:28.600Z,1027.26
2022-11-13T01:38:31.804Z,1027.26
2022-11-13T01:39:29.576Z,1027.25
2022-11-13T01:40:28.567Z,1027.23
2022-11-13T01:41:28.571Z,1027.22
2022-11-13T01:42:28.545Z,1027.23
2022-11-13T01:43:28.533Z,1027.21
2022-11-13T01:44:28.522Z,1027.19
2022-11-13T01:45:28.632Z,1027.19
2022-11-13T01:46:28.499Z,1027.22
2022-11-13T01:47:28.505Z,1027.18
2022-11-13T01:48:28.787Z,1027.19
2022-11-13T01:49:28.472Z,1027.16
2022-11-13T01:50:28.456Z,1027.12
2022-11-13T01:51:28.444Z,1027.14
2022-11-13T01:52:28.434Z,1027.10
2022-11-13T01:53:28.451Z,1027.11
2022-11-13T01:54:28.410Z,1027.02
2022-11-13T01:55:28.400Z,1027.01
2022-11-13T01:56:28.388Z,1027.06
2022-11-13T01:57:28.378Z,1027.04
2022-11-13T01:58:28.725Z,1027.05
2022-11-13T01:59:28.361Z,1027.05
2022-11-13T02:00:28.345Z,1027.03
2022-11-13T02:01:28.505Z,1026.93
2022-11-13T02:02:28.323Z,1026.92
2022-11-13T02:03:28.313Z,1026.92
2022-11-13T02:04:28.300Z,1026.95
2022-11-13T02:05:28.295Z,1026.97
2022-11-13T02:06:28.278Z,1026.92
2022-11-13T02:07:28.268Z,1026.96
2022-11-13T02:08:28.504Z,1026.93
2022-11-13T02:09:28.246Z,1026.92
2022-11-13T02:10:28.233Z,1026.84
2022-11-13T02:11:28.243Z,1026.83
2022-11-13T02:12:28.211Z,1026.84
2022-11-13T02:13:28.199Z,1026.84
2022-11-13T02:14:28.193Z,1026.83
2022-11-13T02:15:28.180Z,1026.84
2022-11-13T02:16:28.168Z,1026.86
2022-11-13T02:17:28.291Z,1026.87
2022-11-13T02:18:28.410Z,1026.83
2022-11-13T02:19:28.135Z,1026.84
2022-11-13T02:20:28.123Z,1026.83
2022-11-13T02:21:28.112Z,1026.83
2022-11-13T02:22:28.099Z,1026.78
2022-11-13T02:23:28.105Z,1026.78
2022-11-13T02:24:28.077Z,1026.77
2022-11-13T02:25:28.075Z,1026.77
2022-11-13T02:26:28.055Z,1026.76
2022-11-13T02:27:28.045Z,1026.74
2022-11-13T02:28:28.194Z,1026.83
2022-11-13T02:29:28.031Z,1026.87
2022-11-13T02:30:28.012Z,1026.84
2022-11-13T02:31:28.002Z,1026.84
2022-11-13T02:32:27.990Z,1026.79
2022-11-13T02:33:28.089Z,1026.82
2022-11-13T02:34:27.969Z,1026.79
2022-11-13T02:35:27.962Z,1026.76
2022-11-13T02:36:27.948Z,1026.76
2022-11-13T02:37:27.935Z,1026.79
2022-11-13T02:38:28.322Z,1026.77
2022-11-13T02:39:27.911Z,1026.78
2022-11-13T02:40:27.901Z,1026.74
2022-11-13T02:41:27.895Z,1026.75
2022-11-13T02:42:27.878Z,1026.73
2022-11-13T02:43:27.867Z,1026.71
2022-11-13T02:44:27.857Z,1026.69
2022-11-13T02:45:27.844Z,1026.70
2022-11-13T02:46:27.836Z,1026.66
2022-11-13T02:47:27.842Z,1026.63
2022-11-13T02:48:28.212Z,1026.57
2022-11-13T02:49:27.910Z,1026.62
2022-11-13T02:50:27.789Z,1026.64
2022-11-13T02:51:27.779Z,1026.65
2022-11-13T02:52:27.789Z,1026.64
2022-11-13T02:53:27.762Z,1026.63
2022-11-13T02:54:27.745Z,1026.60
2022-11-13T02:55:27.734Z,1026.58
2022-11-13T02:56:27.722Z,1026.53
2022-11-13T02:57:27.712Z,1026.56
2022-11-13T02:58:27.945Z,1026.51
2022-11-13T02:59:27.703Z,1026.53
2022-11-13T03:00:27.678Z,1026.49
2022-11-13T03:01:27.761Z,1026.50
2022-11-13T03:02:27.656Z,1026.49
2022-11-13T03:03:56.010Z,1026.48
2022-11-13T03:04:43.998Z,1026.47
2022-11-13T03:05:28.733Z,1026.46
2022-11-13T03:06:27.611Z,1026.43
2022-11-13T03:07:27.603Z,1026.47
2022-11-13T03:08:27.963Z,1026.46
2022-11-13T03:09:27.577Z,1026.47
2022-11-13T03:10:27.572Z,1026.44
2022-11-13T03:11:27.559Z,1026.41
2022-11-13T03:12:27.548Z,1026.41
2022-11-13T03:13:27.539Z,1026.37
2022-11-13T03:14:27.522Z,1026.39
2022-11-13T03:15:27.511Z,1026.40
2022-11-13T03:16:27.506Z,1026.44
2022-11-13T03:17:27.490Z,1026.45
2022-11-13T03:18:27.738Z,1026.42
2022-11-13T03:19:27.468Z,1026.42
2022-11-13T03:20:27.457Z,1026.36
2022-11-13T03:21:27.558Z,1026.38
2022-11-13T03:22:27.472Z,1026.38
2022-11-13T03:23:27.423Z,1026.34
2022-11-13T03:24:27.413Z,1026.36
2022-11-13T03:25:27.401Z,1026.37
2022-11-13T03:26:27.390Z,1026.37
2022-11-13T03:27:27.382Z,1026.36
2022-11-13T03:28:27.695Z,1026.30
2022-11-13T03:29:27.356Z,1026.32
2022-11-13T03:30:27.345Z,1026.30
2022-11-13T03:31:27.334Z,1026.29
2022-11-13T03:32:27.322Z,1026.30
2022-11-13T03:33:27.313Z,1026.29
2022-11-13T03:34:27.331Z,1026.25
2022-11-13T03:35:30.777Z,1026.28
2022-11-13T03:36:27.278Z,1026.29
2022-11-13T03:37:27.400Z,1026.31
2022-11-13T03:38:27.723Z,1026.29
2022-11-13T03:39:27.253Z,1026.31
2022-11-13T03:40:27.245Z,1026.35
2022-11-13T03:41:27.227Z,1026.30
2022-11-13T03:42:27.214Z,1026.31
2022-11-13T03:43:27.199Z,1026.31
2022-11-13T03:44:27.192Z,1026.31
2022-11-13T03:45:27.278Z,1026.33
2022-11-13T03:46:27.174Z,1026.34
2022-11-13T03:47:27.156Z,1026.33
2022-11-13T03:48:27.552Z,1026.36
2022-11-13T03:49:27.134Z,1026.34
2022-11-13T03:50:27.123Z,1026.35
2022-11-13T03:51:27.111Z,1026.31
2022-11-13T03:52:27.121Z,1026.31
2022-11-13T03:53:27.200Z,1026.34
2022-11-13T03:54:27.078Z,1026.38
2022-11-13T03:55:27.107Z,1026.34
2022-11-13T03:56:27.056Z,1026.38
2022-11-13T03:57:27.046Z,1026.38
2022-11-13T03:58:27.516Z,1026.31
2022-11-13T03:59:27.023Z,1026.33
2022-11-13T04:00:27.012Z,1026.32
2022-11-13T04:01:27.074Z,1026.27
2022-11-13T04:02:26.991Z,1026.30
2022-11-13T04:03:26.978Z,1026.27
2022-11-13T04:04:26.975Z,1026.34
2022-11-13T04:05:26.955Z,1026.33
2022-11-13T04:06:26.944Z,1026.29
2022-11-13T04:07:26.938Z,1026.36
2022-11-13T04:08:27.344Z,1026.38
2022-11-13T04:09:27.022Z,1026.38
2022-11-13T04:10:26.906Z,1026.37
2022-11-13T04:11:26.888Z,1026.42
2022-11-13T04:12:26.879Z,1026.38
2022-11-13T04:13:26.868Z,1026.36
2022-11-13T04:14:26.856Z,1026.37
2022-11-13T04:15:26.851Z,1026.35
2022-11-13T04:16:26.841Z,1026.31
2022-11-13T04:17:26.835Z,1026.33
2022-11-13T04:18:27.191Z,1026.31
2022-11-13T04:19:26.800Z,1026.33
2022-11-13T04:20:26.790Z,1026.35
2022-11-13T04:21:26.779Z,1026.35
2022-11-13T04:22:26.774Z,1026.37
2022-11-13T04:23:26.757Z,1026.34
2022-11-13T04:24:26.746Z,1026.33
2022-11-13T04:25:26.845Z,1026.27
2022-11-13T04:26:26.726Z,1026.25
2022-11-13T04:27:26.713Z,1026.20
2022-11-13T04:28:27.159Z,1026.23
2022-11-13T04:29:26.689Z,1026.17
2022-11-13T04:30:26.679Z,1026.21
2022-11-13T04:31:26.668Z,1026.20
2022-11-13T04:32:26.660Z,1026.14
2022-11-13T04:33:26.645Z,1026.09
2022-11-13T04:34:26.640Z,1026.10
2022-11-13T04:35:26.624Z,1026.07
2022-11-13T04:36:26.612Z,1026.09
2022-11-13T04:37:26.599Z,1026.10
2022-11-13T04:38:26.969Z,1026.10
2022-11-13T04:39:26.580Z,1026.14
2022-11-13T04:40:26.576Z,1026.12
2022-11-13T04:41:26.671Z,1026.12
2022-11-13T04:42:26.545Z,1026.14
2022-11-13T04:43:26.535Z,1026.12
2022-11-13T04:44:26.523Z,1026.14
2022-11-13T04:45:26.512Z,1026.04
2022-11-13T04:46:26.533Z,1026.10
2022-11-13T04:47:26.489Z,1026.07
2022-11-13T04:48:26.806Z,1026.07
2022-11-13T04:49:26.467Z,1026.07
2022-11-13T04:50:26.458Z,1026.08
2022-11-13T04:51:26.445Z,1026.11
2022-11-13T04:52:26.441Z,1026.12
2022-11-13T04:53:26.423Z,1026.11
2022-11-13T04:54:28.901Z,1026.11
2022-11-13T04:55:26.401Z,1026.12
2022-11-13T04:56:26.389Z,1026.13
2022-11-13T04:57:26.489Z,1026.12
2022-11-13T04:58:26.663Z,1026.12
2022-11-13T04:59:26.357Z,1026.12
2022-11-13T05:00:26.346Z,1026.12
2022-11-13T05:01:26.364Z,1026.09
2022-11-13T05:02:26.324Z,1026.06
2022-11-13T05:03:26.313Z,1026.07
2022-11-13T05:04:26.323Z,1026.09
2022-11-13T05:05:26.290Z,1026.07
2022-11-13T05:06:26.282Z,1026.08
2022-11-13T05:07:26.268Z,1026.05
2022-11-13T05:08:26.700Z,1026.03
2022-11-13T05:09:26.245Z,1026.03
2022-11-13T05:10:26.238Z,1026.07
2022-11-13T05:11:26.225Z,1026.06
2022-11-13T05:12:26.217Z,1026.08
2022-11-13T05:13:26.311Z,1026.07
2022-11-13T05:14:26.191Z,1026.06
2022-11-13T05:15:26.179Z,1026.09
2022-11-13T05:16:26.199Z,1026.06
2022-11-13T05:17:26.157Z,1026.04
2022-11-13T05:18:26.611Z,1026.05
2022-11-13T05:19:26.136Z,1026.06
2022-11-13T05:20:26.125Z,1026.06
2022-11-13T05:21:26.112Z,1026.07
2022-11-13T05:22:26.108Z,1026.01
2022-11-13T05:23:26.090Z,1026.07
2022-11-13T05:24:26.078Z,1026.06
2022-11-13T05:25:26.071Z,1026.03
2022-11-13T05:26:26.056Z,1026.00
2022-11-13T05:27:26.045Z,1026.02
2022-11-13T05:28:26.410Z,1025.99
2022-11-13T05:29:26.137Z,1026.00
2022-11-13T05:30:26.011Z,1026.00
2022-11-13T05:31:26.000Z,1026.00
2022-11-13T05:32:25.989Z,1026.03
2022-11-13T05:33:25.977Z,1026.00
2022-11-13T05:34:26.007Z,1026.01
2022-11-13T05:35:25.955Z,1026.02
2022-11-13T05:36:25.945Z,1025.98
2022-11-13T05:37:25.933Z,1025.94
2022-11-13T05:38:26.191Z,1025.94
2022-11-13T05:39:25.912Z,1025.98
2022-11-13T05:40:25.917Z,1025.98
2022-11-13T05:41:25.887Z,1025.95
2022-11-13T05:42:25.879Z,1025.92
2022-11-13T05:43:25.867Z,1025.92
2022-11-13T05:44:25.856Z,1025.95
2022-11-13T05:45:25.952Z,1025.92
2022-11-13T05:46:25.841Z,1025.93
2022-11-13T05:47:25.823Z,1025.94
2022-11-13T05:48:26.229Z,1025.93
2022-11-13T05:49:25.800Z,1025.94
2022-11-13T05:50:25.788Z,1025.88
2022-11-13T05:51:25.776Z,1025.91
2022-11-13T05:52:25.795Z,1025.89
2022-11-13T05:53:25.762Z,1025.89
2022-11-13T05:54:25.745Z,1025.91
2022-11-13T05:55:25.733Z,1025.92
2022-11-13T05:56:25.722Z,1025.88
2022-11-13T05:57:25.711Z,1025.87
2022-11-13T05:58:25.948Z,1025.86
2022-11-13T05:59:25.689Z,1025.87
2022-11-13T06:00:25.678Z,1025.88
2022-11-13T06:01:25.778Z,1025.87
2022-11-13T06:02:25.689Z,1025.86
2022-11-13T06:03:25.644Z,1025.86
2022-11-13T06:04:25.646Z,1025.84
2022-11-13T06:05:25.623Z,1025.82
2022-11-13T06:06:25.624Z,1025.84
2022-11-13T06:07:25.600Z,1025.83
2022-11-13T06:08:25.951Z,1025.83
2022-11-13T06:09:25.578Z,1025.84
2022-11-13T06:10:25.587Z,1025.78
2022-11-13T06:11:25.555Z,1025.78
2022-11-13T06:12:25.544Z,1025.75
2022-11-13T06:13:25.533Z,1025.72
2022-11-13T06:14:25.523Z,1025.73
2022-11-13T06:15:25.510Z,1025.70
2022-11-13T06:16:25.508Z,1025.71
2022-11-13T06:17:25.603Z,1025.70
2022-11-13T06:18:26.857Z,1025.71
2022-11-13T06:19:25.467Z,1025.76
2022-11-13T06:20:25.456Z,1025.71
2022-11-13T06:21:25.445Z,1025.72
2022-11-13T06:22:25.443Z,1025.72
2022-11-13T06:23:25.423Z,1025.72
2022-11-13T06:24:25.412Z,1025.67
2022-11-13T06:25:25.400Z,1025.69
2022-11-13T06:26:25.389Z,1025.72
2022-11-13T06:27:25.380Z,1025.67
2022-11-13T06:28:25.542Z,1025.69
2022-11-13T06:29:25.358Z,1025.65
2022-11-13T06:30:25.345Z,1025.65
2022-11-13T06:31:25.333Z,1025.68
2022-11-13T06:32:25.323Z,1025.67
2022-11-13T06:33:25.424Z,1025.67
2022-11-13T06:34:25.321Z,1025.64
2022-11-13T06:35:25.288Z,1025.66
2022-11-13T06:36:25.278Z,1025.63
2022-11-13T06:37:25.270Z,1025.66
2022-11-13T06:38:25.463Z,1025.65
2022-11-13T06:39:25.324Z,1025.61
2022-11-13T06:40:25.250Z,1025.65
2022-11-13T06:41:25.224Z,1025.62
2022-11-13T06:42:25.212Z,1025.62
2022-11-13T06:43:25.201Z,1025.61
2022-11-13T06:44:25.189Z,1025.58
2022-11-13T06:45:25.177Z,1025.60
2022-11-13T06:46:25.190Z,1025.59
2022-11-13T06:47:25.155Z,1025.59
2022-11-13T06:48:25.211Z,1025.61
2022-11-13T06:49:25.249Z,1025.58
2022-11-13T06:50:25.129Z,1025.57
2022-11-13T06:51:25.111Z,1025.58
2022-11-13T06:52:25.107Z,1025.51
2022-11-13T06:53:25.094Z,1025.55
2022-11-13T06:54:25.079Z,1025.55
2022-11-13T06:55:25.069Z,1025.54
2022-11-13T06:56:25.057Z,1025.55
2022-11-13T06:57:25.046Z,1025.55
2022-11-13T06:58:25.238Z,1025.52
2022-11-13T06:59:25.024Z,1025.57
2022-11-13T07:00:25.014Z,1025.53
2022-11-13T07:01:25.112Z,1025.55
2022-11-13T07:02:24.996Z,1025.50
2022-11-13T07:03:24.979Z,1025.53
2022-11-13T07:04:24.999Z,1025.43
2022-11-13T07:05:25.068Z,1025.56
2022-11-13T07:06:24.946Z,1025.46
2022-11-13T07:07:25.050Z,1025.47
2022-11-13T07:08:24.959Z,1025.47
2022-11-13T07:09:24.913Z,1025.42
2022-11-13T07:10:24.908Z,1025.38
2022-11-13T07:11:24.891Z,1025.41
2022-11-13T07:12:24.879Z,1025.40
2022-11-13T07:13:24.868Z,1025.39
2022-11-13T07:14:24.858Z,1025.41
2022-11-13T07:15:24.847Z,1025.40
2022-11-13T07:16:26.292Z,1025.37
2022-11-13T07:17:25.824Z,1025.37
2022-11-13T07:18:24.814Z,1025.35
2022-11-13T07:19:24.802Z,1025.33
2022-11-13T07:20:24.793Z,1025.37
2022-11-13T07:21:24.890Z,1025.34
2022-11-13T07:22:24.790Z,1025.36
2022-11-13T07:23:24.757Z,1025.35
2022-11-13T07:24:24.746Z,1025.34
2022-11-13T07:25:24.734Z,1025.33
2022-11-13T07:26:24.724Z,1025.30
2022-11-13T07:27:24.713Z,1025.30
2022-11-13T07:28:24.747Z,1025.28
2022-11-13T07:29:24.693Z,1025.30
2022-11-13T07:30:24.682Z,1025.24
2022-11-13T07:31:24.669Z,1025.28
2022-11-13T07:32:24.661Z,1025.28
2022-11-13T07:33:24.650Z,1025.28
2022-11-13T07:34:24.641Z,1025.27
2022-11-13T07:35:24.627Z,1025.26
2022-11-13T07:36:24.614Z,1025.27
2022-11-13T07:37:24.716Z,1025.27
2022-11-13T07:38:24.604Z,1025.28
2022-11-13T07:39:24.580Z,1025.33
2022-11-13T07:40:24.592Z,1025.32
2022-11-13T07:41:24.556Z,1025.37
2022-11-13T07:42:24.547Z,1025.36
2022-11-13T07:43:24.536Z,1025.37
2022-11-13T07:44:47.949Z,1025.35
2022-11-13T07:45:25.518Z,1025.39
2022-11-13T07:46:24.502Z,1025.36
2022-11-13T07:47:24.490Z,1025.37
2022-11-13T07:48:24.479Z,1025.39
2022-11-13T07:49:24.469Z,1025.38
2022-11-13T07:50:24.456Z,1025.41
2022-11-13T07:51:24.495Z,1025.39
2022-11-13T07:52:24.434Z,1025.33
2022-11-13T07:53:24.716Z,1025.32
2022-11-13T07:54:24.677Z,1025.33
2022-11-13T07:55:24.618Z,1025.33
2022-11-13T07:56:24.728Z,1025.34
2022-11-13T07:57:24.801Z,1025.33
2022-11-13T07:58:24.609Z,1025.27
2022-11-13T07:59:24.637Z,1025.29
2022-11-13T08:00:24.793Z,1025.28
2022-11-13T08:01:24.659Z,1025.30
2022-11-13T08:02:26.699Z,1025.28
2022-11-13T08:03:24.998Z,1025.26
2022-11-13T08:04:24.407Z,1025.27
2022-11-13T08:05:24.369Z,1025.24
2022-11-13T08:06:24.589Z,1025.26
2022-11-13T08:07:24.847Z,1025.27
2022-11-13T08:08:24.472Z,1025.29
2022-11-13T08:09:24.986Z,1025.34
2022-11-13T08:10:24.608Z,1025.33
2022-11-13T08:11:24.529Z,1025.31
2022-11-13T08:12:24.391Z,1025.32
2022-11-13T08:13:24.368Z,1025.35
2022-11-13T08:14:24.592Z,1025.31
2022-11-13T08:15:24.657Z,1025.31
2022-11-13T08:16:24.480Z,1025.28
2022-11-13T08:17:24.660Z,1025.26
2022-11-13T08:18:24.419Z,1025.34
2022-11-13T08:19:24.376Z,1025.30
2022-11-13T08:20:24.415Z,1025.29
2022-11-13T08:21:24.748Z,1025.30
2022-11-13T08:22:24.248Z,1025.30
2022-11-13T08:23:24.203Z,1025.30
2022-11-13T08:24:24.492Z,1025.31
2022-11-13T08:25:24.356Z,1025.30
2022-11-13T08:26:24.138Z,1025.29
2022-11-13T08:27:24.599Z,1025.30
2022-11-13T08:28:24.535Z,1025.27
2022-11-13T08:29:24.185Z,1025.32
2022-11-13T08:30:24.345Z,1025.31
2022-11-13T08:31:24.293Z,1025.26
2022-11-13T08:32:24.310Z,1025.32
2022-11-13T08:33:24.672Z,1025.33
2022-11-13T08:34:24.186Z,1025.29
2022-11-13T08:35:29.134Z,1025.33
2022-11-13T08:36:25.174Z,1025.27
2022-11-13T08:37:24.152Z,1025.27
2022-11-13T08:38:24.469Z,1025.32
2022-11-13T08:39:24.351Z,1025.30
2022-11-13T08:40:24.160Z,1025.30
2022-11-13T08:41:24.492Z,1025.24
2022-11-13T08:42:24.325Z,1025.24
2022-11-13T08:43:24.027Z,1025.29
2022-11-13T08:44:24.310Z,1025.23
2022-11-13T08:45:24.331Z,1025.27
2022-11-13T08:46:24.005Z,1025.31
2022-11-13T08:47:29.216Z,1025.31
2022-11-13T08:48:25.296Z,1025.28
2022-11-13T08:49:24.052Z,1025.29
2022-11-13T08:50:24.233Z,1025.25
2022-11-13T08:51:24.281Z,1025.22
2022-11-13T08:52:23.985Z,1025.28
2022-11-13T08:53:24.089Z,1025.29
2022-11-13T08:54:23.919Z,1025.29
2022-11-13T08:55:24.069Z,1025.24
2022-11-13T08:56:23.920Z,1025.26
2022-11-13T08:57:24.262Z,1025.29
2022-11-13T08:58:23.867Z,1025.25
2022-11-13T08:59:23.921Z,1025.26
2022-11-13T09:00:24.111Z,1025.27
2022-11-13T09:01:24.000Z,1025.27
2022-11-13T09:02:23.871Z,1025.22
2022-11-13T09:03:24.163Z,1025.24
2022-11-13T09:04:23.881Z,1025.20
2022-11-13T09:05:23.956Z,1025.22
2022-11-13T09:06:23.917Z,1025.19
2022-11-13T09:07:27.368Z,1025.19
2022-11-13T09:08:24.066Z,1025.21
2022-11-13T09:09:24.113Z,1025.21
2022-11-13T09:10:23.903Z,1025.18
2022-11-13T09:11:23.728Z,1025.21
2022-11-13T09:12:23.828Z,1025.18
2022-11-13T09:13:23.966Z,1025.21
2022-11-13T09:14:23.812Z,1025.19
2022-11-13T09:15:24.665Z,1025.16
2022-11-13T09:16:23.811Z,1025.17
2022-11-13T09:17:23.747Z,1025.13
2022-11-13T09:18:23.800Z,1025.16
2022-11-13T09:19:23.798Z,1025.12
2022-11-13T09:20:23.633Z,1025.10
2022-11-13T09:21:23.998Z,1025.14
2022-11-13T09:22:23.703Z,1025.16
2022-11-13T09:23:23.615Z,1025.12
2022-11-13T09:24:23.641Z,1025.13
2022-11-13T09:25:23.777Z,1025.12
2022-11-13T09:26:23.718Z,1025.16
2022-11-13T09:27:23.845Z,1025.16
2022-11-13T09:28:23.523Z,1025.19
2022-11-13T09:29:23.805Z,1025.19
2022-11-13T09:30:23.483Z,1025.19
2022-11-13T09:31:23.664Z,1025.16
2022-11-13T09:32:23.695Z,1025.19
2022-11-13T09:33:24.015Z,1025.19
2022-11-13T09:34:23.469Z,1025.15
2022-11-13T09:35:23.534Z,1025.15
2022-11-13T09:36:23.741Z,1025.15
2022-11-13T09:37:23.382Z,1025.14
2022-11-13T09:38:23.488Z,1025.15
2022-11-13T09:39:23.649Z,1025.09
2022-11-13T09:40:23.565Z,1025.07
2022-11-13T09:41:23.722Z,1025.02
2022-11-13T09:42:23.396Z,1025.03
2022-11-13T09:43:23.430Z,1024.99
2022-11-13T09:44:23.414Z,1025.05
2022-11-13T09:45:23.881Z,1025.05
2022-11-13T09:46:23.474Z,1025.03
2022-11-13T09:47:23.393Z,1025.05
2022-11-13T09:48:23.301Z,1024.98
2022-11-13T09:49:23.392Z,1025.00
2022-11-13T09:50:23.333Z,1024.97
2022-11-13T09:51:24.031Z,1025.04
2022-11-13T09:52:23.271Z,1025.03
2022-11-13T09:53:23.493Z,1025.10
2022-11-13T09:54:23.368Z,1025.04
2022-11-13T09:55:23.271Z,1025.05
2022-11-13T09:56:23.362Z,1025.05
2022-11-13T09:57:26.251Z,1025.02
2022-11-13T09:58:23.334Z,1025.04
2022-11-13T09:59:23.264Z,1025.02
2022-11-13T10:00:23.287Z,1025.04
2022-11-13T10:01:23.447Z,1025.02
2022-11-13T10:02:23.171Z,1024.97
2022-11-13T10:03:46.133Z,1024.98
2022-11-13T10:04:24.087Z,1024.96
2022-11-13T10:05:23.185Z,1024.93
2022-11-13T10:06:23.193Z,1024.94
2022-11-13T10:07:23.254Z,1024.89
2022-11-13T10:08:23.325Z,1024.89
2022-11-13T10:09:23.244Z,1024.88
2022-11-13T10:10:23.093Z,1024.85
2022-11-13T10:11:23.215Z,1024.86
2022-11-13T10:12:23.177Z,1024.86
2022-11-13T10:13:23.181Z,1024.82
2022-11-13T10:14:23.543Z,1024.85
2022-11-13T10:15:23.691Z,1024.88
2022-11-13T10:16:23.203Z,1024.82
2022-11-13T10:17:23.328Z,1024.86
2022-11-13T10:18:23.301Z,1024.85
2022-11-13T10:19:24.095Z,1024.79
2022-11-13T10:20:23.392Z,1024.77
2022-11-13T10:21:24.165Z,1024.77
2022-11-13T10:22:33.550Z,1024.78
2022-11-13T10:23:24.264Z,1024.77
2022-11-13T10:24:23.279Z,1024.77
2022-11-13T10:25:23.307Z,1024.77
2022-11-13T10:26:23.398Z,1024.80
2022-11-13T10:27:24.830Z,1024.81
2022-11-13T10:28:51.591Z,1024.77
2022-11-13T10:29:24.226Z,1024.78
2022-11-13T10:30:24.154Z,1024.80
2022-11-13T10:31:23.362Z,1024.73
2022-11-13T10:32:23.149Z,1024.73
2022-11-13T10:33:23.743Z,1024.74
2022-11-13T10:34:23.998Z,1024.76
2022-11-13T10:35:23.845Z,1024.79
2022-11-13T10:36:23.122Z,1024.72
2022-11-13T10:37:23.169Z,1024.71
2022-11-13T10:38:23.338Z,1024.64
2022-11-13T10:39:23.829Z,1024.65
2022-11-13T10:40:23.829Z,1024.69
2022-11-13T10:41:23.193Z,1024.65
2022-11-13T10:42:23.314Z,1024.63
2022-11-13T10:43:23.212Z,1024.66
2022-11-13T10:44:23.235Z,1024.64
2022-11-13T10:45:25.089Z,1024.62
2022-11-13T10:46:22.966Z,1024.69
2022-11-13T10:47:49.035Z,1024.63
2022-11-13T10:48:24.011Z,1024.70
2022-11-13T10:49:23.210Z,1024.68
2022-11-13T10:50:23.102Z,1024.71
2022-11-13T10:51:23.439Z,1024.69
2022-11-13T10:52:22.980Z,1024.65
2022-11-13T10:53:22.967Z,1024.66
2022-11-13T10:54:22.821Z,1024.63
2022-11-13T10:55:23.062Z,1024.62
2022-11-13T10:56:22.841Z,1024.62
2022-11-13T10:57:24.027Z,1024.58
2022-11-13T10:58:22.894Z,1024.59
2022-11-13T10:59:23.029Z,1024.57
2022-11-13T11:00:22.782Z,1024.51
2022-11-13T11:01:22.927Z,1024.52
2022-11-13T11:02:22.885Z,1024.50
2022-11-13T11:03:24.453Z,1024.51
2022-11-13T11:04:23.766Z,1024.43
2022-11-13T11:05:22.883Z,1024.43
2022-11-13T11:06:22.729Z,1024.45
2022-11-13T11:07:22.842Z,1024.39
2022-11-13T11:08:22.611Z,1024.40
2022-11-13T11:09:22.339Z,1024.42
2022-11-13T11:10:22.606Z,1024.38
2022-11-13T11:11:22.548Z,1024.38
2022-11-13T11:12:28.956Z,1024.39
2022-11-13T11:13:23.632Z,1024.41
2022-11-13T11:14:23.442Z,1024.44
2022-11-13T11:15:23.163Z,1024.42
2022-11-13T11:16:22.927Z,1024.41
2022-11-13T11:17:22.373Z,1024.37
2022-11-13T11:18:22.535Z,1024.39
2022-11-13T11:19:22.990Z,1024.32
2022-11-13T11:20:22.660Z,1024.33
2022-11-13T11:21:22.960Z,1024.31
2022-11-13T11:22:22.496Z,1024.29
2022-11-13T11:23:22.705Z,1024.28
2022-11-13T11:24:22.323Z,1024.23
2022-11-13T11:25:22.288Z,1024.23
2022-11-13T11:26:22.573Z,1024.22
2022-11-13T11:27:22.537Z,1024.17
2022-11-13T11:28:22.188Z,1024.20
2022-11-13T11:29:22.151Z,1024.14
2022-11-13T11:30:22.296Z,1024.17
2022-11-13T11:31:23.057Z,1024.10
2022-11-13T11:32:22.378Z,1024.13
2022-11-13T11:33:22.744Z,1024.12
2022-11-13T11:34:23.450Z,1024.07
2022-11-13T11:35:23.364Z,1024.08
2022-11-13T11:36:23.225Z,1024.05
2022-11-13T11:37:22.533Z,1024.08
2022-11-13T11:38:23.263Z,1024.00
2022-11-13T11:39:22.717Z,1024.03
2022-11-13T11:40:22.614Z,1024.01
2022-11-13T11:41:22.387Z,1024.04
2022-11-13T11:42:23.221Z,1024.02
2022-11-13T11:43:23.304Z,1024.04
2022-11-13T11:44:22.577Z,1024.01
2022-11-13T11:45:23.109Z,1024.06
2022-11-13T11:46:22.599Z,1024.01
2022-11-13T11:47:22.469Z,1023.98
2022-11-13T11:48:22.380Z,1023.98
2022-11-13T11:49:23.132Z,1023.96
2022-11-13T11:50:22.244Z,1023.98
2022-11-13T11:51:23.656Z,1023.99
2022-11-13T11:52:22.277Z,1023.97
2022-11-13T11:53:22.479Z,1023.98
2022-11-13T11:54:23.228Z,1024.00
2022-11-13T11:55:22.397Z,1023.97
2022-11-13T11:56:22.486Z,1024.02
2022-11-13T11:57:23.491Z,1023.97
2022-11-13T11:58:22.413Z,1023.90
2022-11-13T11:59:22.377Z,1023.92
2022-11-13T12:00:22.971Z,1023.91
2022-11-13T12:01:22.949Z,1023.88
2022-11-13T12:02:22.154Z,1023.84
2022-11-13T12:03:23.520Z,1023.84
2022-11-13T12:04:22.257Z,1023.80
2022-11-13T12:05:22.402Z,1023.77